createdAt,value
2019-02-27T00:01:21.744Z,5.20
2019-02-27T00:07:14.847Z,5.00
2019-02-27T00:16:12.389Z,5.20
2019-02-27T00:22:08.907Z,4.90
2019-02-27T00:24:56.668Z,5.00
2019-02-27T00:27:48.742Z,5.00
2019-02-27T00:30:37.868Z,5.00
2019-02-27T00:33:26.102Z,4.80
2019-02-27T00:36:32.423Z,4.90
2019-02-27T00:39:20.441Z,5.10
2019-02-27T00:42:08.248Z,5.20
2019-02-27T00:44:56.108Z,5.00
2019-02-27T00:48:18.068Z,4.70
2019-02-27T00:50:53.634Z,4.60
2019-02-27T00:53:41.397Z,4.80
2019-02-27T00:59:32.896Z,4.60
2019-02-27T01:02:20.827Z,4.60
2019-02-27T01:05:31.365Z,4.50
2019-02-27T01:08:19.171Z,4.70
2019-02-27T01:11:06.967Z,4.80
2019-02-27T01:16:50.182Z,4.80
2019-02-27T01:19:39.694Z,4.50
2019-02-27T01:22:27.698Z,4.30
2019-02-27T01:25:15.722Z,4.20
2019-02-27T01:28:03.765Z,4.30
2019-02-27T01:30:51.539Z,4.40
2019-02-27T01:36:54.894Z,4.30
2019-02-27T01:39:44.126Z,4.40
2019-02-27T01:43:07.279Z,4.10
2019-02-27T01:45:57.410Z,4.00
2019-02-27T01:48:33.631Z,4.20
2019-02-27T01:51:40.843Z,4.30
2019-02-27T01:54:28.630Z,4.30
2019-02-27T01:57:16.657Z,4.00
2019-02-27T02:00:25.393Z,4.00
2019-02-27T02:03:13.710Z,4.00
2019-02-27T02:06:17.404Z,4.00
2019-02-27T02:09:13.687Z,4.00
2019-02-27T02:12:22.439Z,4.00
2019-02-27T02:15:05.576Z,4.10
2019-02-27T02:17:45.977Z,4.10
2019-02-27T02:20:27.225Z,3.90
2019-02-27T02:23:08.957Z,4.00
2019-02-27T02:25:50.461Z,4.10
2019-02-27T02:28:31.043Z,4.10
2019-02-27T02:31:11.896Z,4.10
2019-02-27T02:33:53.715Z,4.20
2019-02-27T02:36:34.373Z,4.10
2019-02-27T02:39:17.951Z,4.00
2019-02-27T02:41:59.864Z,4.00
2019-02-27T02:44:40.530Z,4.10
2019-02-27T02:47:21.519Z,4.00
2019-02-27T02:50:02.369Z,4.00
2019-02-27T02:52:43.047Z,4.00
2019-02-27T02:55:23.717Z,4.00
2019-02-27T02:58:07.991Z,4.00
2019-02-27T03:00:50.038Z,4.00
2019-02-27T03:03:37.054Z,4.00
2019-02-27T03:09:02.288Z,4.10
2019-02-27T03:11:44.655Z,3.80
2019-02-27T03:14:25.336Z,3.60
2019-02-27T03:17:07.525Z,3.60
2019-02-27T03:19:53.430Z,3.60
2019-02-27T03:22:40.176Z,3.40
2019-02-27T03:25:17.952Z,3.40
2019-02-27T03:28:04.674Z,3.20
2019-02-27T03:30:42.775Z,3.30
2019-02-27T03:33:27.112Z,3.40
2019-02-27T03:36:07.344Z,3.40
2019-02-27T03:38:47.899Z,3.20
2019-02-27T03:41:30.280Z,3.00
2019-02-27T03:44:11.141Z,3.00
2019-02-27T03:46:54.045Z,2.90
2019-02-27T03:49:40.739Z,3.00
2019-02-27T03:52:21.296Z,2.80
2019-02-27T03:55:01.998Z,2.70
2019-02-27T03:57:43.487Z,2.80
2019-02-27T04:00:38.185Z,2.80
2019-02-27T04:03:06.756Z,2.60
2019-02-27T04:05:47.715Z,2.60
2019-02-27T04:08:28.476Z,2.60
2019-02-27T04:11:09.457Z,2.60
2019-02-27T04:13:50.876Z,2.60
2019-02-27T04:16:31.612Z,2.60
2019-02-27T04:19:12.505Z,2.70
2019-02-27T04:21:53.687Z,2.60
2019-02-27T04:24:35.143Z,2.50
2019-02-27T04:27:20.215Z,2.60
2019-02-27T04:29:57.874Z,2.70
2019-02-27T04:32:40.710Z,2.70
2019-02-27T04:35:21.892Z,2.80
2019-02-27T04:40:48.417Z,2.60
2019-02-27T04:46:21.562Z,2.60
2019-02-27T04:51:48.062Z,2.70
2019-02-27T04:54:29.835Z,2.80
2019-02-27T04:57:10.534Z,2.80
2019-02-27T04:59:52.344Z,2.90
2019-02-27T05:02:33.708Z,2.90
2019-02-27T05:05:14.351Z,2.90
2019-02-27T05:07:54.984Z,3.00
2019-02-27T05:10:38.176Z,2.80
2019-02-27T05:13:20.902Z,2.70
2019-02-27T05:16:04.621Z,2.80
2019-02-27T05:18:47.712Z,2.70
2019-02-27T05:21:28.543Z,2.50
2019-02-27T05:24:11.721Z,2.50
2019-02-27T05:26:52.718Z,2.50
2019-02-27T05:29:35.165Z,2.50
2019-02-27T05:32:18.114Z,2.30
2019-02-27T05:34:58.551Z,2.20
2019-02-27T05:37:41.890Z,2.30
2019-02-27T05:40:25.969Z,2.30
2019-02-27T05:43:05.762Z,2.30
2019-02-27T05:45:46.504Z,2.10
2019-02-27T05:51:12.160Z,2.20
2019-02-27T05:53:56.154Z,2.20
2019-02-27T05:56:36.547Z,2.30
2019-02-27T05:59:17.826Z,2.20
2019-02-27T06:02:00.189Z,2.30
2019-02-27T06:04:44.363Z,2.40
2019-02-27T06:10:28.897Z,2.10
2019-02-27T06:13:14.045Z,2.20
2019-02-27T06:15:52.670Z,2.20
2019-02-27T06:18:33.643Z,2.40
2019-02-27T06:21:16.662Z,2.50
2019-02-27T06:23:58.770Z,2.60
2019-02-27T06:26:40.879Z,2.60
2019-02-27T06:32:12.366Z,2.30
2019-02-27T06:34:53.706Z,2.30
2019-02-27T06:37:37.596Z,2.30
2019-02-27T06:40:22.056Z,2.40
2019-02-27T06:43:06.019Z,2.50
2019-02-27T06:54:25.494Z,2.50
2019-02-27T06:59:57.086Z,2.60
2019-02-27T07:08:26.929Z,2.80
2019-02-27T07:11:10.526Z,2.90
2019-02-27T07:19:35.450Z,3.10
2019-02-27T07:36:45.152Z,3.50
2019-02-27T07:45:16.379Z,3.60
2019-02-27T07:47:58.849Z,3.70
2019-02-27T07:56:45.231Z,3.90
2019-02-27T08:01:57.058Z,4.00
2019-02-27T08:48:34.488Z,5.10
2019-02-27T08:51:18.131Z,5.10
2019-02-27T08:56:49.814Z,5.40
2019-02-27T09:02:29.210Z,5.40
2019-02-27T09:25:23.611Z,5.90
2019-02-27T09:28:03.651Z,5.90
2019-02-27T09:36:43.002Z,6.10
2019-02-27T09:45:08.281Z,6.80
2019-02-27T09:50:42.255Z,6.70
2019-02-27T09:53:25.361Z,7.00
2019-02-27T09:59:00.753Z,7.00
2019-02-27T10:04:29.062Z,7.10
2019-02-27T10:10:02.362Z,7.40
2019-02-27T10:15:35.521Z,7.20
2019-02-27T10:18:19.006Z,7.20
2019-02-27T10:23:46.261Z,8.00
2019-02-27T10:38:11.217Z,8.00
2019-02-27T10:40:50.069Z,8.80
2019-02-27T10:43:30.820Z,8.60
2019-02-27T10:46:13.208Z,8.60
2019-02-27T10:48:54.265Z,8.50
2019-02-27T10:51:36.262Z,8.60
2019-02-27T10:57:05.960Z,8.80
2019-02-27T10:59:49.497Z,9.20
2019-02-27T11:02:30.341Z,9.10
2019-02-27T11:05:18.419Z,9.80
2019-02-27T11:10:46.460Z,10.40
2019-02-27T11:13:28.538Z,9.90
2019-02-27T11:16:12.614Z,10.30
2019-02-27T11:21:38.754Z,10.10
2019-02-27T11:24:21.012Z,10.10
2019-02-27T11:27:06.215Z,10.30
2019-02-27T11:32:36.826Z,10.50
2019-02-27T11:35:22.060Z,10.80
2019-02-27T11:46:41.011Z,11.30
2019-02-27T11:49:23.374Z,11.50
2019-02-27T11:52:03.995Z,11.80
2019-02-27T11:57:30.539Z,12.20
2019-02-27T12:00:13.681Z,12.10
2019-02-27T12:02:54.853Z,11.90
2019-02-27T12:08:25.747Z,12.40
2019-02-27T12:13:58.051Z,12.50
2019-02-27T12:16:42.613Z,12.70
2019-02-27T12:19:22.853Z,12.80
2019-02-27T12:22:03.402Z,12.90
2019-02-27T12:30:24.029Z,13.30
2019-02-27T12:33:05.116Z,13.40
2019-02-27T12:35:45.882Z,13.60
2019-02-27T12:38:26.509Z,13.50
2019-02-27T12:43:54.926Z,14.10
2019-02-27T12:49:27.449Z,14.30
2019-02-27T12:58:16.373Z,14.80
2019-02-27T13:00:58.595Z,14.70
2019-02-27T13:06:48.077Z,14.90
2019-02-27T13:09:17.728Z,15.00
2019-02-27T13:12:17.329Z,14.90
2019-02-27T13:14:59.503Z,14.80
2019-02-27T13:17:43.541Z,15.00
2019-02-27T13:26:03.341Z,15.10
2019-02-27T13:28:48.817Z,15.30
2019-02-27T13:31:27.334Z,15.50
2019-02-27T13:34:11.327Z,15.60
2019-02-27T13:36:51.323Z,15.60
2019-02-27T13:39:32.479Z,15.80
2019-02-27T13:47:49.466Z,15.80
2019-02-27T13:50:31.536Z,16.00
2019-02-27T13:53:12.269Z,16.00
2019-02-27T13:58:36.871Z,16.00
2019-02-27T14:01:17.640Z,16.00
2019-02-27T14:04:02.015Z,16.00
2019-02-27T14:06:47.434Z,16.20
2019-02-27T14:09:27.233Z,16.30
2019-02-27T14:12:09.774Z,16.20
2019-02-27T14:17:49.400Z,16.80
2019-02-27T14:20:29.979Z,16.60
2019-02-27T14:23:14.593Z,16.50
2019-02-27T14:28:43.599Z,16.70
2019-02-27T14:31:25.585Z,16.70
2019-02-27T14:34:09.416Z,16.90
2019-02-27T14:42:23.290Z,17.00
2019-02-27T14:45:05.982Z,16.90
2019-02-27T14:47:49.003Z,17.20
2019-02-27T14:50:34.751Z,17.20
2019-02-27T14:53:19.877Z,17.10
2019-02-27T14:56:01.409Z,17.20
2019-02-27T15:04:50.399Z,17.30
2019-02-27T15:13:28.316Z,17.40
2019-02-27T15:16:10.071Z,17.40
2019-02-27T15:18:55.052Z,17.50
2019-02-27T15:21:33.964Z,17.50
2019-02-27T15:27:08.440Z,17.40
2019-02-27T15:29:52.980Z,17.20
2019-02-27T15:32:34.327Z,17.10
2019-02-27T15:35:15.593Z,17.10
2019-02-27T15:37:56.518Z,17.20
2019-02-27T15:40:39.202Z,17.30
2019-02-27T15:43:24.682Z,17.40
2019-02-27T15:46:02.710Z,17.70
2019-02-27T15:48:45.154Z,17.40
2019-02-27T15:51:28.480Z,17.70
2019-02-27T15:54:09.233Z,17.40
2019-02-27T15:59:41.768Z,17.20
2019-02-27T16:02:22.415Z,17.20
2019-02-27T16:05:03.268Z,16.90
2019-02-27T16:07:48.487Z,16.70
2019-02-27T16:10:55.341Z,16.70
2019-02-27T16:16:25.951Z,16.80
2019-02-27T16:22:03.188Z,16.60
2019-02-27T16:24:44.013Z,16.40
2019-02-27T16:27:26.023Z,16.30
2019-02-27T16:30:08.858Z,16.20
2019-02-27T16:32:50.508Z,16.20
2019-02-27T16:35:30.773Z,16.00
2019-02-27T16:38:13.151Z,15.70
2019-02-27T16:46:44.538Z,15.10
2019-02-27T16:49:23.530Z,15.00
2019-02-27T16:52:07.830Z,15.00
2019-02-27T16:54:47.387Z,14.90
2019-02-27T16:57:29.826Z,14.70
2019-02-27T17:03:01.812Z,14.30
2019-02-27T17:05:43.216Z,14.10
2019-02-27T17:08:24.430Z,14.00
2019-02-27T17:11:05.241Z,13.80
2019-02-27T17:16:33.372Z,13.50
2019-02-27T17:19:14.536Z,13.40
2019-02-27T17:33:40.023Z,12.80
2019-02-27T17:36:21.534Z,12.70
2019-02-27T17:39:04.694Z,12.70
2019-02-27T17:41:46.995Z,12.60
2019-02-27T17:44:27.677Z,12.50
2019-02-27T17:50:00.215Z,12.40
2019-02-27T17:52:40.757Z,12.30
2019-02-27T18:01:13.835Z,11.90
2019-02-27T18:09:30.335Z,11.60
2019-02-27T18:12:12.104Z,11.40
2019-02-27T18:14:52.667Z,11.40
2019-02-27T18:17:34.945Z,11.40
2019-02-27T18:20:15.640Z,11.30
2019-02-27T18:22:56.415Z,11.10
2019-02-27T18:28:32.922Z,11.10
2019-02-27T18:33:56.845Z,10.60
2019-02-27T18:36:46.489Z,10.70
2019-02-27T18:39:14.773Z,10.70
2019-02-27T18:42:02.552Z,10.60
2019-02-27T18:44:50.698Z,10.40
2019-02-27T18:47:39.458Z,10.30
2019-02-27T18:53:18.124Z,10.20
2019-02-27T18:56:05.932Z,10.20
2019-02-27T18:58:55.606Z,10.00
2019-02-27T19:15:30.906Z,9.70
2019-02-27T19:18:11.903Z,9.60
2019-02-27T19:20:53.006Z,9.60
2019-02-27T19:23:33.786Z,9.70
2019-02-27T19:26:14.857Z,9.80
2019-02-27T19:28:59.330Z,9.80
2019-02-27T19:31:37.669Z,9.80
2019-02-27T19:34:18.733Z,9.80
2019-02-27T19:39:53.412Z,9.70
2019-02-27T19:42:33.733Z,9.70
2019-02-27T19:45:14.667Z,9.60
2019-02-27T19:47:58.678Z,9.60
2019-02-27T19:53:23.187Z,9.10
2019-02-27T19:56:03.996Z,8.80
2019-02-27T19:58:44.591Z,8.80
2019-02-27T20:01:25.352Z,8.80
2019-02-27T20:04:08.973Z,8.60
2019-02-27T20:06:48.812Z,8.40
2019-02-27T20:09:29.230Z,8.40
2019-02-27T20:14:54.269Z,8.10
2019-02-27T20:17:36.375Z,8.10
2019-02-27T20:20:16.603Z,7.90
2019-02-27T20:22:57.088Z,7.90
2019-02-27T20:25:43.184Z,7.90
2019-02-27T20:28:20.275Z,8.10
2019-02-27T20:31:00.848Z,8.20
2019-02-27T20:33:41.406Z,8.20
2019-02-27T20:36:22.200Z,8.10
2019-02-27T20:39:04.427Z,8.10
2019-02-27T20:41:45.319Z,8.10
2019-02-27T20:47:26.008Z,8.10
2019-02-27T20:50:06.586Z,8.00
2019-02-27T20:52:49.531Z,7.90
2019-02-27T20:55:30.845Z,8.00
2019-02-27T20:58:16.146Z,7.90
2019-02-27T21:03:37.726Z,7.90
2019-02-27T21:06:17.976Z,8.00
2019-02-27T21:09:01.831Z,8.10
2019-02-27T21:11:42.111Z,8.10
2019-02-27T21:14:24.262Z,8.10
2019-02-27T21:17:05.392Z,8.10
2019-02-27T21:19:46.526Z,8.10
2019-02-27T21:22:27.771Z,8.00
2019-02-27T21:25:08.663Z,7.90
2019-02-27T21:27:49.408Z,7.90
2019-02-27T21:30:30.302Z,7.80
2019-02-27T21:33:12.003Z,7.90
2019-02-27T21:35:52.957Z,7.90
2019-02-27T21:38:33.498Z,7.80
2019-02-27T21:41:14.368Z,7.80
2019-02-27T21:43:56.615Z,7.80
2019-02-27T21:49:20.282Z,7.80
2019-02-27T21:52:00.771Z,7.80
2019-02-27T21:54:44.334Z,7.70
2019-02-27T22:00:13.947Z,7.70
2019-02-27T22:02:54.906Z,7.80
2019-02-27T22:05:42.473Z,7.90
2019-02-27T22:08:17.843Z,7.70
2019-02-27T22:10:58.657Z,7.80
2019-02-27T22:13:42.275Z,7.70
2019-02-27T22:16:23.096Z,7.60
2019-02-27T22:19:03.661Z,7.60
2019-02-27T22:21:44.227Z,7.70
2019-02-27T22:24:25.134Z,7.70
2019-02-27T22:27:05.684Z,7.70
2019-02-27T22:29:46.449Z,7.60
2019-02-27T22:32:27.494Z,7.70
2019-02-27T22:35:08.085Z,7.70
2019-02-27T22:37:52.284Z,7.60
2019-02-27T22:40:31.440Z,7.60
2019-02-27T22:43:11.899Z,7.50
2019-02-27T22:45:55.793Z,7.60
2019-02-27T22:48:36.763Z,7.50
2019-02-27T22:51:17.594Z,7.60
2019-02-27T22:53:59.488Z,7.50
2019-02-27T22:56:40.789Z,7.50
2019-02-27T22:59:21.358Z,7.50
2019-02-27T23:02:01.585Z,7.40
2019-02-27T23:04:42.035Z,7.40
2019-02-27T23:07:22.552Z,7.30
2019-02-27T23:10:03.145Z,7.30
2019-02-27T23:12:43.579Z,7.30
2019-02-27T23:15:25.375Z,7.30
2019-02-27T23:18:06.836Z,7.20
2019-02-27T23:20:47.744Z,7.20
2019-02-27T23:26:41.603Z,7.10
2019-02-27T23:29:22.596Z,7.10
2019-02-27T23:32:03.202Z,7.10
2019-02-27T23:34:43.609Z,7.10
2019-02-27T23:37:29.375Z,7.10
2019-02-27T23:40:07.807Z,7.00
2019-02-27T23:42:48.502Z,7.00
2019-02-27T23:45:29.228Z,7.00
2019-02-27T23:48:10.117Z,7.00
2019-02-27T23:50:51.006Z,6.90
2019-02-27T23:53:31.341Z,6.90
2019-02-27T23:56:11.863Z,6.90
2019-02-27T23:58:52.754Z,6.90
